Aérodrome :
LOGIN :

S'inscrire | Disclaimer

   EN    FR    IT 

 










Légende :    VFR   VFR Marginal   IFR   IFR Intensif   IFR Très Intensif
Visi : 
Plafond : 
>= 8 km
>= 3000ft
5 à 8 km
1000 à 3000 ft
1500m à 5 km
500 à 1000 ft
800 à 1500m
200 à 500 ft
< 800m
< 200 ft
Symboles :   Orages  Brouillard  Fortes neiges  Fortes précipitations  Vent > 20 kt
SIGMETs :   Divers  Orages  Givrage  Turbulence  Onde Orograph.  Cendres Volcan.







- Altitude de l'aérodrome : 74 ft
- Code IATA : MRS
- Voir les cartes d'approche


LFML - Marseille / Marignane

DERNIER METAR :
  • 210700Z AUTO 29017KT 9999 FEW030 17/12 Q1011 TEMPO 32020G35KT

METARs EXPIRÉS :
  • 210630Z AUTO 29017KT 9999 FEW027 16/11 Q1011 TEMPO 32020G35KT
  • 210600Z AUTO 29020KT CAVOK 16/11 Q1011 TEMPO 32020G35KT
  • 210530Z AUTO 29020KT 9999 FEW018 15/11 Q1011 TEMPO 32020G35KT
  • 210500Z AUTO 29020KT CAVOK 15/11 Q1010 BECMG 30015G25KT

TAF TAF LFML
Valide du 21 à 03h jusqu'au 22 à 09h UTC


210200Z 2103/2209 30015G25KT CAVOK TX24/2115Z TN14/2103Z
TEMPO 2107/2119 32020G35KT
BECMG 2201/2203 33008KT
ATIS : +33 4 42 31 15 15
Pas de NOTAMs connus pour ce terrain.
1 SIGMET publié pour la FIR Marseille (LFMM) :
 
Onde orographique forte
LFMM SIGMET 1 VALID 210400/210800 LFPW
LFMM MARSEILLE FIR/UIR SEV MTW FCST E OF E00900 SFC/FL100 STNR NC=



MET'MAP, la Météo Aéronautique d'un coup d'oeil ! - Copyright ORBIFLY Décembre 2007 - Disclaimer

ORBIFLY MET'MAP TEAM :

Programmation & Développement : Alexandra Zaïnal
Conception & Développement : Baudouin d'Aumeries
Co-Programmation & Développement : Marc-Olivier Méhu
Soutien technique & logistique : Manuel Goepfert

Contact : metmap@orbifly.com




SOURCES & CREDITS :

   NOAA